• Join FlightAware (Why Join?)
  • Login
  • US Flag 
04:13PM EDT


 

Airport Tracker/Info


-or-


 

Live Flight TrackerFlight Track Log ✈ N75ZM ✈ 09-Oct-2013 ✈ KPDK - KCHS

Flight Track Log - Related Links

Times and Time Zones

All times are in EDT time to prevent confusion due to time zone crossing. See the N75ZM flight status page for this flight to view local times or setup timezone preferences in your user account.

Time Position Orientation Groundspeed Altitude Reporting Facility
EDT Latitude Longitude Course Direction KTS MPH feet Rate Location/Type
12:25PM 33.9000 -84.3000 23° Northeast 118 136 1,800  Level Atlanta TRACON
12:25PM 33.9333 -84.2833 23° Northeast 132 152 2,600 840 Climbing Atlanta TRACON
12:26PM 33.9333 -84.2333 90° East 122 140 3,500 780 Climbing Atlanta TRACON
12:27PM 33.9333 -84.2000 90° East 129 148 4,200 660 Climbing Atlanta TRACON
12:28PM 33.9333 -84.1500 90° East 138 159 4,800 480 Climbing Atlanta TRACON
12:29PM 33.9333 -84.1000 90° East 154 177 5,200 300 Climbing Atlanta TRACON
12:30PM 33.9333 -84.0500 90° East 163 188 5,500 540 Climbing Atlanta TRACON
12:31PM 33.9333 -84.0000 90° East 139 160 6,300 720 Climbing Atlanta TRACON
12:32PM 33.9167 -83.9500 112° Southeast 128 147 7,100 420 Climbing Atlanta TRACON
12:33PM 33.9167 -83.9000 90° East 157 181 7,200  Climbing Atlanta TRACON
12:34PM 33.9167 -83.8500 90° East 171 197 7,100  Descending Atlanta TRACON
12:35PM 33.9000 -83.8000 112° Southeast 170 196 7,200  Climbing Atlanta TRACON
12:36PM 33.9000 -83.7500 90° East 171 197 7,200 -60 Level Atlanta TRACON
12:37PM 33.9000 -83.6833 90° East 171 197 7,100 -60 Descending Atlanta TRACON
12:38PM 33.8833 -83.6167 107° East 170 196 7,100  Level Atlanta TRACON
12:39PM 33.8833 -83.5833 90° East 172 198 7,100  Level Atlanta TRACON
12:40PM 33.8667 -83.5167 107° East 175 201 7,100  Level Atlanta TRACON
12:41PM 33.8667 -83.4667 90° East 173 199 7,100  Level Atlanta TRACON
12:42PM 33.8667 -83.4000 90° East 175 201 7,100  Level Atlanta TRACON
12:43PM 33.8500 -83.3500 112° Southeast 174 200 7,100  Level Atlanta TRACON
12:44PM 33.8500 -83.2833 90° East 173 199 7,100  Level Atlanta TRACON
12:45PM 33.8333 -83.2333 112° Southeast 177 204 7,100  Level Atlanta TRACON
12:46PM 33.8333 -83.1667 90° East 179 206 7,100  Level Atlanta TRACON
12:47PM 33.8333 -83.1167 90° East 178 205 7,100  Level Atlanta TRACON
12:48PM 33.8167 -83.0500 107° East 178 205 7,100  Level Atlanta TRACON
12:50PM 33.7996 -82.9902 109° East  Level FlightAware Approximate
12:57PM 33.7503 -82.6166 97° East  Level FlightAware Approximate
12:58PM 33.7446 -82.5629 97° East  Level FlightAware Approximate
12:59PM 33.7388 -82.5092 97° East  Level FlightAware Approximate
01:00PM 33.7331 -82.4554 97° East  Level FlightAware Approximate
01:01PM 33.7273 -82.4017 97° East  Level FlightAware Approximate
01:02PM 33.7215 -82.3480 97° East  Level FlightAware Approximate
01:03PM 33.7157 -82.2943 97° East  Level FlightAware Approximate
01:04PM 33.7099 -82.2406 97° East  Level FlightAware Approximate
01:05PM 33.7040 -82.1869 97° East  Level FlightAware Approximate
01:06PM 33.6939 -82.1348 116° Southeast  Level FlightAware Approximate
01:07PM 33.6744 -82.0860 116° Southeast  Level FlightAware Approximate
01:08PM 33.6549 -82.0372 116° Southeast  Level FlightAware Approximate
01:09PM 33.6354 -81.9884 116° Southeast  Level FlightAware Approximate
01:10PM 33.6167 -81.9392 114° Southeast  Level FlightAware Approximate
01:11PM 33.5981 -81.8900 114° Southeast  Level FlightAware Approximate
01:12PM 33.5795 -81.8407 114° Southeast  Level FlightAware Approximate
01:13PM 33.5609 -81.7915 114° Southeast  Level FlightAware Approximate
01:14PM 33.5422 -81.7423 114° Southeast  Level FlightAware Approximate
01:15PM 33.5236 -81.6931 114° Southeast  Level FlightAware Approximate
01:16PM 33.5049 -81.6440 114° Southeast  Level FlightAware Approximate
01:17PM 33.4862 -81.5948 115° Southeast  Level FlightAware Approximate
01:18PM 33.4674 -81.5457 115° Southeast  Level FlightAware Approximate
01:19PM 33.4487 -81.4966 114° Southeast  Level FlightAware Approximate
01:20PM 33.4302 -81.4474 114° Southeast  Level FlightAware Approximate
01:21PM 33.4116 -81.3983 114° Southeast  Level FlightAware Approximate
01:22PM 33.3930 -81.3492 114° Southeast  Level FlightAware Approximate
01:23PM 33.3744 -81.3000 114° Southeast  Level FlightAware Approximate
01:24PM 33.3558 -81.2509 114° Southeast  Level FlightAware Approximate
01:25PM 33.3371 -81.2019 114° Southeast  Level FlightAware Approximate
01:26PM 33.3184 -81.1528 114° Southeast  Level FlightAware Approximate
01:27PM 33.2997 -81.1038 115° Southeast  Level FlightAware Approximate
01:28PM 33.2810 -81.0547 115° Southeast  Level FlightAware Approximate
01:29PM 33.2623 -81.0058 115° Southeast  Level FlightAware Approximate
01:30PM 33.2435 -80.9568 115° Southeast  Level FlightAware Approximate
01:31PM 33.2248 -80.9078 115° Southeast  Level FlightAware Approximate
01:32PM 33.2060 -80.8589 115° Southeast  Level FlightAware Approximate
01:33PM 33.1872 -80.8100 115° Southeast  Level FlightAware Approximate
01:34PM 33.1683 -80.7611 115° Southeast  Level FlightAware Approximate
01:35PM 33.1493 -80.7123 115° Southeast  Level FlightAware Approximate
01:36PM 33.1304 -80.6635 115° Southeast  Level FlightAware Approximate
01:37PM 33.1114 -80.6147 115° Southeast  Level FlightAware Approximate
01:38PM 33.0924 -80.5660 115° Southeast  Level FlightAware Approximate
01:39PM 33.0734 -80.5172 115° Southeast  Level FlightAware Approximate
01:40PM 33.0559 -80.4677 112° Southeast  Level FlightAware Approximate
01:41PM 33.0393 -80.4178 112° Southeast  Level FlightAware Approximate
01:42PM 33.0226 -80.3679 112° Southeast  Level FlightAware Approximate
01:43PM 33.0035 -80.3193 117° Southeast  Level FlightAware Approximate
01:44PM 32.9831 -80.2714 117° Southeast  Level FlightAware Approximate
01:45PM 32.9626 -80.2236 117° Southeast  Level FlightAware Approximate
01:46PM 32.9421 -80.1758 117° Southeast  Level FlightAware Approximate
01:47PM 32.9216 -80.1281 117° Southeast  Level FlightAware Approximate
01:48PM 32.9019 -80.0798 115° Southeast  Level FlightAware Approximate
01:49PM 32.8986 -80.0405 115° Southeast  Level Estimated
01:50PM 32.8986 -80.0405 115° Southeast  Level Estimated
01:51PM 32.8986 -80.0405 115° Southeast  Level Estimated
01:52PM 32.8986 -80.0405 115° Southeast  Level Estimated
01:53PM 32.8986 -80.0405 115° Southeast  Level Estimated